Emigsville, Pennsylvania
Current Conditions -  °F | °C
As of 12:53 AM on Thursday 23 Oct 2014 (Local Time) from KTHV Reporting Station
Overcast Overcast  
Wind Chill: 51°   Ceiling: 2600
Heat Index: 51°   Visibility: 10mi
Dew Point: 43°   Wind: 14mph
Humidity: 74%   Direction: 320°NW
Pressure: 29.91"   Gusts: 18mph
Location:  40.01°N, 76.73°W
Report Text: KTHV 230453Z AUTO 32012G16KT 10SM OVC026 11/06 A2991 RMK AO2 SLP132 T01060061 401280106
Loading
Personal Weather Stations






























Interactive Weather Map
Tropical Storm Tracking
New forecast layout! Learn more

10-Day Weather Forecast

Advertisements
Track Severe Weather on mobile